sensor_id;sensor_type;location;lat;lon;timestamp;pressure;altitude;pressure_sealevel;temperature;humidity
22257;BME280;11297;42.686;23.374;2022-12-29T00:01:19;95929.06;;;9.04;61.61
22257;BME280;11297;42.686;23.374;2022-12-29T00:03:46;95929.00;;;9.09;61.46
22257;BME280;11297;42.686;23.374;2022-12-29T00:06:11;95919.19;;;9.06;61.49
22257;BME280;11297;42.686;23.374;2022-12-29T00:08:37;95922.03;;;9.09;61.35
22257;BME280;11297;42.686;23.374;2022-12-29T00:11:12;95923.81;;;9.14;60.64
22257;BME280;11297;42.686;23.374;2022-12-29T00:13:38;95926.97;;;9.06;61.38
22257;BME280;11297;42.686;23.374;2022-12-29T00:16:22;95929.31;;;9.03;61.50
22257;BME280;11297;42.686;23.374;2022-12-29T00:18:48;95932.91;;;9.11;61.10
22257;BME280;11297;42.686;23.374;2022-12-29T00:21:15;95930.28;;;9.16;60.89
22257;BME280;11297;42.686;23.374;2022-12-29T00:24:00;95939.16;;;9.05;61.42
22257;BME280;11297;42.686;23.374;2022-12-29T00:26:45;95929.81;;;9.09;61.00
22257;BME280;11297;42.686;23.374;2022-12-29T00:29:28;95932.13;;;9.06;61.50
22257;BME280;11297;42.686;23.374;2022-12-29T00:32:13;95931.13;;;9.07;60.91
22257;BME280;11297;42.686;23.374;2022-12-29T00:34:56;95934.22;;;9.04;61.57
22257;BME280;11297;42.686;23.374;2022-12-29T00:37:37;95936.56;;;9.05;61.43
22257;BME280;11297;42.686;23.374;2022-12-29T00:40:22;95940.19;;;9.04;61.48
22257;BME280;11297;42.686;23.374;2022-12-29T00:43:06;95941.75;;;9.05;61.49
22257;BME280;11297;42.686;23.374;2022-12-29T00:45:50;95933.25;;;8.95;62.11
22257;BME280;11297;42.686;23.374;2022-12-29T00:48:15;95943.03;;;9.03;61.59
22257;BME280;11297;42.686;23.374;2022-12-29T00:51:01;95936.84;;;8.99;61.39
22257;BME280;11297;42.686;23.374;2022-12-29T00:53:26;95944.31;;;9.10;61.65
22257;BME280;11297;42.686;23.374;2022-12-29T00:55:52;95946.09;;;9.15;60.88
22257;BME280;11297;42.686;23.374;2022-12-29T00:58:17;95936.53;;;9.15;61.13
22257;BME280;11297;42.686;23.374;2022-12-29T01:00:42;95952.81;;;9.21;60.64
22257;BME280;11297;42.686;23.374;2022-12-29T01:03:08;95939.84;;;9.21;60.50
22257;BME280;11297;42.686;23.374;2022-12-29T01:05:36;95952.00;;;9.25;60.53
22257;BME280;11297;42.686;23.374;2022-12-29T01:08:01;95946.56;;;9.27;60.30
22257;BME280;11297;42.686;23.374;2022-12-29T01:10:27;95938.25;;;9.30;60.17
22257;BME280;11297;42.686;23.374;2022-12-29T01:12:52;95939.78;;;9.31;60.24
22257;BME280;11297;42.686;23.374;2022-12-29T01:15:17;95935.09;;;9.33;60.03
22257;BME280;11297;42.686;23.374;2022-12-29T01:17:43;95933.78;;;9.40;59.53
22257;BME280;11297;42.686;23.374;2022-12-29T01:20:08;95928.59;;;9.40;59.50
22257;BME280;11297;42.686;23.374;2022-12-29T01:22:34;95923.66;;;9.39;59.85
22257;BME280;11297;42.686;23.374;2022-12-29T01:25:00;95928.56;;;9.45;59.54
22257;BME280;11297;42.686;23.374;2022-12-29T01:27:25;95925.97;;;9.45;59.42
22257;BME280;11297;42.686;23.374;2022-12-29T01:29:51;95923.88;;;9.47;59.39
22257;BME280;11297;42.686;23.374;2022-12-29T01:32:16;95914.09;;;9.39;59.73
22257;BME280;11297;42.686;23.374;2022-12-29T01:34:42;95929.28;;;9.51;59.16
22257;BME280;11297;42.686;23.374;2022-12-29T01:37:08;95907.31;;;9.43;59.13
22257;BME280;11297;42.686;23.374;2022-12-29T01:39:33;95922.63;;;9.40;59.02
22257;BME280;11297;42.686;23.374;2022-12-29T01:41:59;95911.50;;;9.34;59.19
22257;BME280;11297;42.686;23.374;2022-12-29T01:47:13;95923.47;;;9.25;59.43
22257;BME280;11297;42.686;23.374;2022-12-29T01:49:40;95909.22;;;9.28;59.45
22257;BME280;11297;42.686;23.374;2022-12-29T01:52:07;95913.66;;;9.27;59.31
22257;BME280;11297;42.686;23.374;2022-12-29T01:54:42;95906.66;;;9.23;59.88
22257;BME280;11297;42.686;23.374;2022-12-29T01:57:15;95908.78;;;9.16;59.84
22257;BME280;11297;42.686;23.374;2022-12-29T01:59:48;95901.53;;;9.13;59.85
22257;BME280;11297;42.686;23.374;2022-12-29T02:02:16;95903.63;;;9.11;59.56
22257;BME280;11297;42.686;23.374;2022-12-29T02:04:42;95893.81;;;9.08;59.83
22257;BME280;11297;42.686;23.374;2022-12-29T02:07:19;95885.66;;;8.76;60.72
22257;BME280;11297;42.686;23.374;2022-12-29T02:09:48;95893.44;;;8.71;61.20
22257;BME280;11297;42.686;23.374;2022-12-29T02:12:15;95892.22;;;8.54;61.47
22257;BME280;11297;42.686;23.374;2022-12-29T02:14:41;95893.75;;;8.60;61.86
22257;BME280;11297;42.686;23.374;2022-12-29T02:36:33;95892.03;;;8.36;62.45
22257;BME280;11297;42.686;23.374;2022-12-29T02:39:12;95890.72;;;8.43;62.32
22257;BME280;11297;42.686;23.374;2022-12-29T02:42:21;95890.19;;;8.41;61.94
22257;BME280;11297;42.686;23.374;2022-12-29T02:45:01;95885.25;;;8.45;61.35
22257;BME280;11297;42.686;23.374;2022-12-29T02:50:36;95890.44;;;8.45;61.49
22257;BME280;11297;42.686;23.374;2022-12-29T02:53:09;95885.25;;;8.50;61.82
22257;BME280;11297;42.686;23.374;2022-12-29T02:55:36;95873.88;;;8.46;61.77
22257;BME280;11297;42.686;23.374;2022-12-29T02:58:22;95880.03;;;8.59;61.60
22257;BME280;11297;42.686;23.374;2022-12-29T03:04:18;95884.69;;;8.62;61.12
22257;BME280;11297;42.686;23.374;2022-12-29T03:07:12;95880.53;;;8.66;61.13
22257;BME280;11297;42.686;23.374;2022-12-29T03:10:03;95878.44;;;8.68;60.89
22257;BME280;11297;42.686;23.374;2022-12-29T03:12:37;95870.72;;;8.54;60.52
22257;BME280;11297;42.686;23.374;2022-12-29T03:15:30;95880.03;;;8.59;60.55
22257;BME280;11297;42.686;23.374;2022-12-29T03:18:24;95862.41;;;8.61;60.30
22257;BME280;11297;42.686;23.374;2022-12-29T03:21:00;95876.88;;;8.72;60.29
22257;BME280;11297;42.686;23.374;2022-12-29T03:23:28;95868.31;;;8.72;60.17
22257;BME280;11297;42.686;23.374;2022-12-29T03:25:56;95850.81;;;8.49;60.46
22257;BME280;11297;42.686;23.374;2022-12-29T03:28:28;95863.72;;;8.59;60.49
22257;BME280;11297;42.686;23.374;2022-12-29T03:30:57;95868.91;;;8.59;60.09
22257;BME280;11297;42.686;23.374;2022-12-29T03:33:26;95865.28;;;8.55;60.22
22257;BME280;11297;42.686;23.374;2022-12-29T03:35:58;95880.56;;;8.57;60.62
22257;BME280;11297;42.686;23.374;2022-12-29T03:40:59;95879.84;;;8.41;61.35
22257;BME280;11297;42.686;23.374;2022-12-29T03:43:28;95878.84;;;8.32;61.30
22257;BME280;11297;42.686;23.374;2022-12-29T03:45:53;95881.69;;;8.31;61.81
22257;BME280;11297;42.686;23.374;2022-12-29T03:48:19;95874.72;;;8.16;62.13
22257;BME280;11297;42.686;23.374;2022-12-29T03:50:44;95881.72;;;7.91;62.52
22257;BME280;11297;42.686;23.374;2022-12-29T03:53:09;95894.16;;;8.04;62.48
22257;BME280;11297;42.686;23.374;2022-12-29T03:55:35;95887.16;;;8.00;62.93
22257;BME280;11297;42.686;23.374;2022-12-29T03:58:00;95891.06;;;7.92;63.55
22257;BME280;11297;42.686;23.374;2022-12-29T04:00:25;95893.66;;;7.92;63.23
22257;BME280;11297;42.686;23.374;2022-12-29T04:02:51;95895.69;;;7.90;63.82
22257;BME280;11297;42.686;23.374;2022-12-29T04:05:16;95897.78;;;7.83;64.13
22257;BME280;11297;42.686;23.374;2022-12-29T04:07:42;95895.19;;;7.83;63.92
22257;BME280;11297;42.686;23.374;2022-12-29T04:10:07;95904.00;;;7.77;64.31
22257;BME280;11297;42.686;23.374;2022-12-29T04:12:33;95897.25;;;7.66;64.71
22257;BME280;11297;42.686;23.374;2022-12-29T04:14:58;95888.72;;;7.51;65.31
22257;BME280;11297;42.686;23.374;2022-12-29T04:17:24;95891.81;;;7.53;66.17
22257;BME280;11297;42.686;23.374;2022-12-29T04:19:49;95905.75;;;7.27;66.14
22257;BME280;11297;42.686;23.374;2022-12-29T04:22:14;95901.66;;;7.31;66.49
22257;BME280;11297;42.686;23.374;2022-12-29T04:24:40;95902.66;;;7.35;65.81
22257;BME280;11297;42.686;23.374;2022-12-29T04:27:05;95906.28;;;7.19;66.04
22257;BME280;11297;42.686;23.374;2022-12-29T04:29:30;95878.84;;;7.04;66.02
22257;BME280;11297;42.686;23.374;2022-12-29T04:31:56;95883.47;;;6.97;66.62
22257;BME280;11297;42.686;23.374;2022-12-29T04:34:21;95908.28;;;6.98;66.95
22257;BME280;11297;42.686;23.374;2022-12-29T04:36:47;95897.91;;;6.88;67.20
22257;BME280;11297;42.686;23.374;2022-12-29T04:39:12;95908.78;;;6.95;67.29
22257;BME280;11297;42.686;23.374;2022-12-29T04:41:38;95916.28;;;6.96;67.21
22257;BME280;11297;42.686;23.374;2022-12-29T04:44:03;95913.72;;;7.01;66.88
22257;BME280;11297;42.686;23.374;2022-12-29T04:46:28;95914.00;;;7.05;66.82
22257;BME280;11297;42.686;23.374;2022-12-29T04:48:54;95926.38;;;6.98;66.99
22257;BME280;11297;42.686;23.374;2022-12-29T04:51:19;95929.66;;;6.78;67.73
22257;BME280;11297;42.686;23.374;2022-12-29T04:53:44;95921.66;;;6.80;68.29
22257;BME280;11297;42.686;23.374;2022-12-29T04:56:10;95928.13;;;6.82;67.75
22257;BME280;11297;42.686;23.374;2022-12-29T04:58:36;95937.69;;;6.92;67.43
22257;BME280;11297;42.686;23.374;2022-12-29T05:01:01;95927.63;;;6.90;67.45
22257;BME280;11297;42.686;23.374;2022-12-29T05:03:26;95927.63;;;6.90;67.64
22257;BME280;11297;42.686;23.374;2022-12-29T05:05:55;95929.41;;;6.85;67.51
22257;BME280;11297;42.686;23.374;2022-12-29T05:08:21;95931.97;;;6.75;67.89
22257;BME280;11297;42.686;23.374;2022-12-29T05:10:47;95932.00;;;6.85;67.88
22257;BME280;11297;42.686;23.374;2022-12-29T05:13:12;95932.28;;;6.88;67.11
22257;BME280;11297;42.686;23.374;2022-12-29T05:15:38;95935.59;;;6.79;67.86
22257;BME280;11297;42.686;23.374;2022-12-29T05:18:16;95935.59;;;6.79;67.30
22257;BME280;11297;42.686;23.374;2022-12-29T05:20:41;95932.03;;;6.95;67.43
22257;BME280;11297;42.686;23.374;2022-12-29T05:23:07;95925.09;;;7.00;66.79
22257;BME280;11297;42.686;23.374;2022-12-29T05:25:32;95934.41;;;7.11;66.41
22257;BME280;11297;42.686;23.374;2022-12-29T05:27:57;95933.41;;;7.27;66.16
22257;BME280;11297;42.686;23.374;2022-12-29T05:30:23;95932.13;;;7.39;65.48
22257;BME280;11297;42.686;23.374;2022-12-29T05:32:49;95917.69;;;7.43;65.70
22257;BME280;11297;42.686;23.374;2022-12-29T05:35:14;95934.50;;;7.56;64.70
22257;BME280;11297;42.686;23.374;2022-12-29T05:37:39;95918.47;;;7.54;64.75
22257;BME280;11297;42.686;23.374;2022-12-29T05:40:05;95930.59;;;7.68;64.82
22257;BME280;11297;42.686;23.374;2022-12-29T05:42:31;95939.16;;;7.78;64.14
22257;BME280;11297;42.686;23.374;2022-12-29T05:44:56;95922.34;;;7.86;63.81
22257;BME280;11297;42.686;23.374;2022-12-29T05:47:22;95931.66;;;7.97;63.33
22257;BME280;11297;42.686;23.374;2022-12-29T05:49:47;95923.63;;;7.93;63.27
22257;BME280;11297;42.686;23.374;2022-12-29T05:52:40;95933.44;;;7.96;63.18
22257;BME280;11297;42.686;23.374;2022-12-29T05:55:06;95938.88;;;7.95;62.75
22257;BME280;11297;42.686;23.374;2022-12-29T05:57:32;95943.03;;;7.96;63.33
22257;BME280;11297;42.686;23.374;2022-12-29T05:59:57;95940.44;;;8.01;62.95
22257;BME280;11297;42.686;23.374;2022-12-29T06:02:22;95938.88;;;8.05;63.40
22257;BME280;11297;42.686;23.374;2022-12-29T06:04:48;95952.38;;;8.11;62.97
22257;BME280;11297;42.686;23.374;2022-12-29T06:07:13;95946.69;;;8.14;63.64
22257;BME280;11297;42.686;23.374;2022-12-29T06:09:39;95953.41;;;8.20;63.65
22257;BME280;11297;42.686;23.374;2022-12-29T06:12:05;95950.78;;;8.30;63.43
22257;BME280;11297;42.686;23.374;2022-12-29T06:14:30;95953.84;;;8.42;63.20
22257;BME280;11297;42.686;23.374;2022-12-29T06:16:56;95944.50;;;8.61;62.85
22257;BME280;11297;42.686;23.374;2022-12-29T06:19:21;95946.28;;;8.75;61.71
22257;BME280;11297;42.686;23.374;2022-12-29T06:21:46;95946.03;;;8.77;61.71
22257;BME280;11297;42.686;23.374;2022-12-29T06:24:12;95942.84;;;8.95;61.20
22257;BME280;11297;42.686;23.374;2022-12-29T06:26:37;95948.19;;;9.13;61.15
22257;BME280;11297;42.686;23.374;2022-12-29T06:29:03;95955.66;;;9.24;60.77
22257;BME280;11297;42.686;23.374;2022-12-29T06:31:28;95951.97;;;9.35;59.98
22257;BME280;11297;42.686;23.374;2022-12-29T06:33:54;95946.19;;;9.48;59.90
22257;BME280;11297;42.686;23.374;2022-12-29T06:36:19;95957.81;;;9.89;66.39
22257;BME280;11297;42.686;23.374;2022-12-29T06:38:45;95955.84;;;10.14;67.94
22257;BME280;11297;42.686;23.374;2022-12-29T06:41:10;95963.03;;;10.22;64.31
22257;BME280;11297;42.686;23.374;2022-12-29T06:43:35;95949.09;;;10.13;58.71
22257;BME280;11297;42.686;23.374;2022-12-29T06:46:04;95953.28;;;10.09;58.43
22257;BME280;11297;42.686;23.374;2022-12-29T06:48:29;95959.84;;;9.97;58.98
22257;BME280;11297;42.686;23.374;2022-12-29T06:50:55;95960.88;;;10.01;58.66
22257;BME280;11297;42.686;23.374;2022-12-29T06:53:20;95961.41;;;9.98;58.76
22257;BME280;11297;42.686;23.374;2022-12-29T06:55:46;95960.00;;;10.10;58.18
22257;BME280;11297;42.686;23.374;2022-12-29T06:58:11;95970.94;;;10.35;57.71
22257;BME280;11297;42.686;23.374;2022-12-29T07:00:37;95962.91;;;10.83;57.13
22257;BME280;11297;42.686;23.374;2022-12-29T07:03:02;95962.69;;;11.44;54.71
22257;BME280;11297;42.686;23.374;2022-12-29T07:05:28;95964.16;;;12.05;53.02
22257;BME280;11297;42.686;23.374;2022-12-29T07:07:54;95972.00;;;12.64;51.52
22257;BME280;11297;42.686;23.374;2022-12-29T07:10:20;95959.72;;;13.09;56.37
22257;BME280;11297;42.686;23.374;2022-12-29T07:12:46;95955.06;;;13.55;49.49
22257;BME280;11297;42.686;23.374;2022-12-29T07:15:11;95948.72;;;13.83;47.29
22257;BME280;11297;42.686;23.374;2022-12-29T07:17:37;95945.69;;;13.89;47.13
22257;BME280;11297;42.686;23.374;2022-12-29T07:20:03;95951.03;;;14.19;46.31
22257;BME280;11297;42.686;23.374;2022-12-29T07:22:29;95950.22;;;14.40;46.29
22257;BME280;11297;42.686;23.374;2022-12-29T07:24:54;95954.22;;;14.77;45.37
22257;BME280;11297;42.686;23.374;2022-12-29T07:27:20;95944.16;;;15.00;44.83
22257;BME280;11297;42.686;23.374;2022-12-29T07:29:45;95955.19;;;15.19;44.22
22257;BME280;11297;42.686;23.374;2022-12-29T07:32:11;95952.78;;;15.56;43.35
22257;BME280;11297;42.686;23.374;2022-12-29T07:34:36;95949.41;;;15.73;42.52
22257;BME280;11297;42.686;23.374;2022-12-29T07:37:02;95947.41;;;15.86;41.81
22257;BME280;11297;42.686;23.374;2022-12-29T07:39:27;95941.09;;;15.87;41.83
22257;BME280;11297;42.686;23.374;2022-12-29T07:41:52;95953.88;;;16.31;41.56
22257;BME280;11297;42.686;23.374;2022-12-29T07:44:18;95951.25;;;16.06;41.54
22257;BME280;11297;42.686;23.374;2022-12-29T07:46:43;95954.34;;;16.25;41.31
22257;BME280;11297;42.686;23.374;2022-12-29T07:49:09;95949.56;;;16.35;40.80
22257;BME280;11297;42.686;23.374;2022-12-29T07:51:34;95948.56;;;16.56;40.87
22257;BME280;11297;42.686;23.374;2022-12-29T07:53:59;95954.16;;;16.92;40.20
22257;BME280;11297;42.686;23.374;2022-12-29T07:56:26;95963.91;;;17.77;67.25
22257;BME280;11297;42.686;23.374;2022-12-29T07:58:51;95964.66;;;18.83;62.46
22257;BME280;11297;42.686;23.374;2022-12-29T08:01:17;95960.22;;;19.82;57.17
22257;BME280;11297;42.686;23.374;2022-12-29T08:03:42;95960.75;;;20.81;56.33
22257;BME280;11297;42.686;23.374;2022-12-29T08:06:11;95952.03;;;21.91;56.44
22257;BME280;11297;42.686;23.374;2022-12-29T08:08:36;95953.75;;;22.37;48.53
22257;BME280;11297;42.686;23.374;2022-12-29T08:11:02;95954.13;;;22.20;41.24
22257;BME280;11297;42.686;23.374;2022-12-29T08:13:27;95950.22;;;22.52;37.70
22257;BME280;11297;42.686;23.374;2022-12-29T08:15:53;95951.59;;;22.08;32.50
22257;BME280;11297;42.686;23.374;2022-12-29T08:18:18;95955.09;;;21.59;36.85
22257;BME280;11297;42.686;23.374;2022-12-29T08:20:43;95949.50;;;21.79;34.48
22257;BME280;11297;42.686;23.374;2022-12-29T08:23:09;95953.31;;;21.32;34.40
22257;BME280;11297;42.686;23.374;2022-12-29T08:25:34;95959.56;;;20.78;40.97
22257;BME280;11297;42.686;23.374;2022-12-29T08:28:00;95945.78;;;21.00;40.13
22257;BME280;11297;42.686;23.374;2022-12-29T08:30:25;95947.25;;;21.47;37.19
22257;BME280;11297;42.686;23.374;2022-12-29T08:32:50;95929.59;;;21.51;36.84
22257;BME280;11297;42.686;23.374;2022-12-29T08:35:16;95945.03;;;21.34;33.07
22257;BME280;11297;42.686;23.374;2022-12-29T08:37:41;95946.50;;;21.31;34.78
22257;BME280;11297;42.686;23.374;2022-12-29T08:40:07;95929.22;;;21.18;33.44
22257;BME280;11297;42.686;23.374;2022-12-29T08:42:33;95949.22;;;21.35;34.56
22257;BME280;11297;42.686;23.374;2022-12-29T08:44:59;95949.44;;;20.96;33.86
22257;BME280;11297;42.686;23.374;2022-12-29T08:47:25;95942.19;;;21.08;35.77
22257;BME280;11297;42.686;23.374;2022-12-29T08:49:51;95950.59;;;20.98;34.77
22257;BME280;11297;42.686;23.374;2022-12-29T08:52:16;95932.34;;;21.09;37.42
22257;BME280;11297;42.686;23.374;2022-12-29T08:54:42;95942.28;;;20.81;36.44
22257;BME280;11297;42.686;23.374;2022-12-29T08:57:07;95936.28;;;20.41;39.95
22257;BME280;11297;42.686;23.374;2022-12-29T08:59:32;95925.81;;;20.72;37.21
22257;BME280;11297;42.686;23.374;2022-12-29T09:01:58;95936.31;;;20.84;35.86
22257;BME280;11297;42.686;23.374;2022-12-29T09:04:23;95933.28;;;21.16;34.79
22257;BME280;11297;42.686;23.374;2022-12-29T09:06:49;95926.84;;;20.67;34.11
22257;BME280;11297;42.686;23.374;2022-12-29T09:09:15;95924.88;;;20.80;36.49
22257;BME280;11297;42.686;23.374;2022-12-29T09:11:42;95922.38;;;20.71;36.83
22257;BME280;11297;42.686;23.374;2022-12-29T09:14:08;95928.84;;;20.59;36.63
22257;BME280;11297;42.686;23.374;2022-12-29T09:16:34;95908.88;;;20.46;36.10
22257;BME280;11297;42.686;23.374;2022-12-29T09:19:00;95923.00;;;20.38;35.10
22257;BME280;11297;42.686;23.374;2022-12-29T09:21:26;95910.56;;;20.96;33.79
22257;BME280;11297;42.686;23.374;2022-12-29T09:23:51;95915.16;;;20.68;33.74
22257;BME280;11297;42.686;23.374;2022-12-29T09:26:17;95920.56;;;20.17;34.55
22257;BME280;11297;42.686;23.374;2022-12-29T09:28:42;95913.16;;;19.57;34.94
22257;BME280;11297;42.686;23.374;2022-12-29T09:31:09;95916.38;;;18.91;36.07
22257;BME280;11297;42.686;23.374;2022-12-29T09:33:35;95914.72;;;18.74;36.62
22257;BME280;11297;42.686;23.374;2022-12-29T09:36:01;95882.94;;;18.23;36.71
22257;BME280;11297;42.686;23.374;2022-12-29T09:38:27;95908.13;;;18.80;38.51
22257;BME280;11297;42.686;23.374;2022-12-29T09:41:01;95907.63;;;19.11;36.29
22257;BME280;11297;42.686;23.374;2022-12-29T09:46:29;95899.25;;;18.97;36.39
22257;BME280;11297;42.686;23.374;2022-12-29T09:49:13;95890.25;;;18.98;36.46
22257;BME280;11297;42.686;23.374;2022-12-29T09:51:43;95893.88;;;18.69;36.86
22257;BME280;11297;42.686;23.374;2022-12-29T09:54:23;95848.16;;;18.18;37.57
22257;BME280;11297;42.686;23.374;2022-12-29T09:56:50;95887.28;;;18.52;37.54
22257;BME280;11297;42.686;23.374;2022-12-29T09:59:20;95888.69;;;18.49;41.49
22257;BME280;11297;42.686;23.374;2022-12-29T10:01:54;95878.69;;;18.11;40.94
22257;BME280;11297;42.686;23.374;2022-12-29T10:04:22;95884.34;;;17.69;40.99
22257;BME280;11297;42.686;23.374;2022-12-29T10:06:55;95878.69;;;18.31;38.94
22257;BME280;11297;42.686;23.374;2022-12-29T10:09:40;95875.72;;;18.32;38.20
22257;BME280;11297;42.686;23.374;2022-12-29T10:12:33;95875.06;;;18.35;38.21
22257;BME280;11297;42.686;23.374;2022-12-29T10:25:57;95859.34;;;19.58;36.77
22257;BME280;11297;42.686;23.374;2022-12-29T10:28:34;95865.97;;;19.40;37.26
22257;BME280;11297;42.686;23.374;2022-12-29T10:31:01;95851.59;;;19.37;37.12
22257;BME280;11297;42.686;23.374;2022-12-29T10:33:35;95853.53;;;19.52;36.79
22257;BME280;11297;42.686;23.374;2022-12-29T10:36:19;95852.00;;;19.78;35.88
22257;BME280;11297;42.686;23.374;2022-12-29T10:39:06;95846.56;;;19.32;36.39
22257;BME280;11297;42.686;23.374;2022-12-29T10:41:43;95843.53;;;18.95;36.91
22257;BME280;11297;42.686;23.374;2022-12-29T10:44:14;95846.97;;;18.27;38.31
22257;BME280;11297;42.686;23.374;2022-12-29T10:46:41;95848.53;;;18.40;38.34
22257;BME280;11297;42.686;23.374;2022-12-29T10:49:16;95834.28;;;18.41;38.52
22257;BME280;11297;42.686;23.374;2022-12-29T10:51:44;95840.66;;;19.00;37.60
22257;BME280;11297;42.686;23.374;2022-12-29T10:54:12;95836.97;;;19.40;37.11
22257;BME280;11297;42.686;23.374;2022-12-29T10:56:46;95830.34;;;18.95;37.44
22257;BME280;11297;42.686;23.374;2022-12-29T10:59:16;95830.69;;;19.17;37.36
22257;BME280;11297;42.686;23.374;2022-12-29T11:04:35;95823.38;;;19.65;35.78
22257;BME280;11297;42.686;23.374;2022-12-29T11:07:03;95820.28;;;19.75;35.70
22257;BME280;11297;42.686;23.374;2022-12-29T11:09:34;95813.97;;;19.91;35.66
22257;BME280;11297;42.686;23.374;2022-12-29T11:12:00;95818.16;;;19.80;35.66
22257;BME280;11297;42.686;23.374;2022-12-29T11:14:28;95809.72;;;19.75;35.43
22257;BME280;11297;42.686;23.374;2022-12-29T11:16:59;95803.53;;;19.83;35.72
22257;BME280;11297;42.686;23.374;2022-12-29T11:19:27;95801.66;;;20.11;35.49
22257;BME280;11297;42.686;23.374;2022-12-29T11:21:54;95805.13;;;20.30;35.06
22257;BME280;11297;42.686;23.374;2022-12-29T11:24:26;95798.69;;;20.27;34.90
22257;BME280;11297;42.686;23.374;2022-12-29T11:26:54;95792.72;;;20.15;34.69
22257;BME280;11297;42.686;23.374;2022-12-29T11:29:40;95797.81;;;20.08;35.02
22257;BME280;11297;42.686;23.374;2022-12-29T11:32:24;95801.00;;;19.86;35.53
22257;BME280;11297;42.686;23.374;2022-12-29T11:34:50;95801.00;;;19.59;35.70
22257;BME280;11297;42.686;23.374;2022-12-29T11:37:23;95788.34;;;19.65;36.48
22257;BME280;11297;42.686;23.374;2022-12-29T11:40:15;95802.06;;;19.43;36.35
22257;BME280;11297;42.686;23.374;2022-12-29T11:42:51;95789.19;;;19.14;36.53
22257;BME280;11297;42.686;23.374;2022-12-29T11:45:20;95795.22;;;19.15;37.21
22257;BME280;11297;42.686;23.374;2022-12-29T11:47:49;95787.84;;;19.20;36.99
22257;BME280;11297;42.686;23.374;2022-12-29T11:50:22;95780.16;;;19.15;36.81
22257;BME280;11297;42.686;23.374;2022-12-29T11:52:49;95785.31;;;19.23;36.78
22257;BME280;11297;42.686;23.374;2022-12-29T11:55:21;95787.91;;;18.72;37.57
22257;BME280;11297;42.686;23.374;2022-12-29T11:57:50;95782.97;;;18.83;37.83
22257;BME280;11297;42.686;23.374;2022-12-29T12:00:22;95791.94;;;18.82;37.46
22257;BME280;11297;42.686;23.374;2022-12-29T12:02:56;95784.16;;;18.73;37.46
22257;BME280;11297;42.686;23.374;2022-12-29T12:05:46;95783.50;;;18.65;37.87
22257;BME280;11297;42.686;23.374;2022-12-29T12:08:37;95768.19;;;18.55;38.01
22257;BME280;11297;42.686;23.374;2022-12-29T12:11:25;95774.22;;;18.43;38.13
22257;BME280;11297;42.686;23.374;2022-12-29T12:16:25;95769.47;;;18.13;38.38
22257;BME280;11297;42.686;23.374;2022-12-29T12:19:06;95758.88;;;17.77;39.51
22257;BME280;11297;42.686;23.374;2022-12-29T12:21:42;95771.97;;;17.66;39.83
22257;BME280;11297;42.686;23.374;2022-12-29T12:27:20;95770.03;;;17.42;40.35
22257;BME280;11297;42.686;23.374;2022-12-29T12:30:19;95763.50;;;17.08;42.48
22257;BME280;11297;42.686;23.374;2022-12-29T12:35:44;95757.47;;;16.38;43.72
22257;BME280;11297;42.686;23.374;2022-12-29T12:49:41;95746.78;;;16.14;43.87
22257;BME280;11297;42.686;23.374;2022-12-29T12:52:17;95751.41;;;16.09;43.99
22257;BME280;11297;42.686;23.374;2022-12-29T12:58:23;95756.28;;;15.81;44.79
22257;BME280;11297;42.686;23.374;2022-12-29T13:09:13;95750.19;;;15.44;45.98
22257;BME280;11297;42.686;23.374;2022-12-29T13:15:20;95758.22;;;15.30;46.05
22257;BME280;11297;42.686;23.374;2022-12-29T13:17:57;95766.88;;;15.23;46.20
22257;BME280;11297;42.686;23.374;2022-12-29T13:28:33;95770.84;;;14.95;46.82
22257;BME280;11297;42.686;23.374;2022-12-29T13:37:16;95761.91;;;15.04;46.30
22257;BME280;11297;42.686;23.374;2022-12-29T13:39:48;95769.00;;;15.12;46.59
22257;BME280;11297;42.686;23.374;2022-12-29T13:42:16;95757.31;;;15.01;46.91
22257;BME280;11297;42.686;23.374;2022-12-29T13:44:46;95761.16;;;15.04;46.65
22257;BME280;11297;42.686;23.374;2022-12-29T13:49:44;95759.75;;;15.06;46.30
22257;BME280;11297;42.686;23.374;2022-12-29T13:52:13;95766.09;;;15.05;46.83
22257;BME280;11297;42.686;23.374;2022-12-29T13:57:52;95759.75;;;15.06;46.70
22257;BME280;11297;42.686;23.374;2022-12-29T14:00:21;95761.75;;;15.09;46.82
22257;BME280;11297;42.686;23.374;2022-12-29T14:05:29;95774.09;;;15.09;46.64
22257;BME280;11297;42.686;23.374;2022-12-29T14:08:03;95772.53;;;15.08;46.91
22257;BME280;11297;42.686;23.374;2022-12-29T14:10:35;95776.53;;;14.88;47.12
22257;BME280;11297;42.686;23.374;2022-12-29T14:15:29;95772.38;;;14.79;49.32
22257;BME280;11297;42.686;23.374;2022-12-29T14:18:11;95783.41;;;14.68;48.68
22257;BME280;11297;42.686;23.374;2022-12-29T14:20:48;95780.63;;;14.56;49.35
22257;BME280;11297;42.686;23.374;2022-12-29T14:23:25;95776.91;;;14.48;49.30
22257;BME280;11297;42.686;23.374;2022-12-29T14:28:33;95786.56;;;14.31;50.01
22257;BME280;11297;42.686;23.374;2022-12-29T14:31:01;95789.44;;;14.21;50.43
22257;BME280;11297;42.686;23.374;2022-12-29T14:33:32;95786.88;;;13.99;50.85
22257;BME280;11297;42.686;23.374;2022-12-29T14:38:46;95795.97;;;13.80;51.30
22257;BME280;11297;42.686;23.374;2022-12-29T14:41:38;95793.97;;;13.77;51.75
22257;BME280;11297;42.686;23.374;2022-12-29T14:44:16;95795.81;;;13.77;51.46
22257;BME280;11297;42.686;23.374;2022-12-29T14:49:24;95798.13;;;13.78;51.39
22257;BME280;11297;42.686;23.374;2022-12-29T14:52:05;95793.66;;;13.79;51.77
22257;BME280;11297;42.686;23.374;2022-12-29T14:57:05;95795.53;;;13.78;51.41
22257;BME280;11297;42.686;23.374;2022-12-29T14:59:33;95795.38;;;13.75;51.75
22257;BME280;11297;42.686;23.374;2022-12-29T15:02:03;95796.19;;;13.62;51.90
22257;BME280;11297;42.686;23.374;2022-12-29T15:04:33;95792.09;;;13.47;52.58
22257;BME280;11297;42.686;23.374;2022-12-29T15:07:00;95794.06;;;13.20;53.19